Skip Navigation LinksHome page > Weather > Current weather Skip Navigation Links

Current Weather

Baltimore-Washington Intl, Baltimore

For information only: do not use for flight planning or navigation.
Latest weather
Observation time Sunday, May 26, 2019 10:54 AM EDT
Local time Sunday, May 26, 2019 11:36 AM EDT
Flight conditions Visual Meteorological Conditions
Winds
Wind direction West-Northwest (290°)
Winds variable from 240° to 310°
Wind speed 8 mph
Visibility 10 mi.
Sky condition
Ceiling unlimited
Cloud layer few clouds 4,200 ft.
Cloud layer scattered clouds 25,000 ft.
Temperature 85°F
Dewpoint 66°F
Altimeter 30.00 in.Hg
Pressure change last 3 hours0.00 in.Hg
Pressure rising, then falling
Derived measurements
Relative humidity 53%
Heat index 87°F
Density altitude 2006 ft.
Sea-level pressure 30.00 in.Hg
Remarks
Automated weather observing station with precipitation discriminator.
METAR KBWI 261454Z 29007KT 240V310 10SM FEW042 SCT250 29/19 A3000 RMK AO2 SLP159 T02940189 50000

Settings

Location code

InnerDrive.Weather 4.0.6770.0 Release CLR 4.0.30319.42000
Copyright ©2018 Inner Drive Technology. All rights reserved. Portions Copyright ©1986-2018 David Braverman.

Find weather

Site navigation


Skip Navigation Links

Place info

Page info

PayPal - The safer, easier way to pay online!

Return home.

Copyright ©2019 Inner Drive Technology. Purveyors of fine, hand-crafted computer software. Page printed 2019-05-26T15:36:36 UTC.